Time;durP1;ratioP1;P1;durP2;ratioP2;P2;SDS_P1;SDS_P2;PMS_P1;PMS_P2;Temp;Humidity;BMP_temperature;BMP_pressure;BME280_temperature;BME280_humidity;BME280_pressure;Samples;Min_cycle;Max_cycle;Signal;HPM_P1;HPM_P2
2024/03/31 00:00:30;;;;;;;2.65;2.45;;;7.70;99.90;;;;;;4995697;28;20129;-63
2024/03/31 00:02:56;;;;;;;2.90;2.58;;;7.70;99.90;;;;;;5013733;28;20586;-63
2024/03/31 00:05:22;;;;;;;3.22;2.20;;;7.60;99.90;;;;;;4998833;28;20038;-63
2024/03/31 00:07:48;;;;;;;2.33;2.20;;;7.60;99.90;;;;;;5000145;28;20037;-63
2024/03/31 00:10:14;;;;;;;4.70;2.70;;;7.50;99.90;;;;;;5006257;28;20100;-63
2024/03/31 00:12:43;;;;;;;3.83;2.50;;;7.40;99.90;;;;;;5002394;28;20049;-63
2024/03/31 00:15:10;;;;;;;4.65;2.60;;;7.30;99.90;;;;;;5005881;28;20068;-63
2024/03/31 00:17:35;;;;;;;2.38;2.20;;;7.20;99.90;;;;;;4999306;28;20055;-63
2024/03/31 00:20:01;;;;;;;2.42;2.25;;;7.20;99.90;;;;;;5003124;28;20412;-62
2024/03/31 00:22:27;;;;;;;4.47;2.05;;;7.10;99.90;;;;;;5003859;28;20101;-63
2024/03/31 00:24:53;;;;;;;6.70;2.20;;;7.10;99.90;;;;;;4985892;28;20577;-63
2024/03/31 00:27:18;;;;;;;2.58;2.10;;;7.10;99.90;;;;;;4999865;28;20456;-63
2024/03/31 00:29:44;;;;;;;3.10;1.80;;;7.10;99.90;;;;;;4990872;28;20060;-62
2024/03/31 00:32:10;;;;;;;2.03;1.90;;;7.00;99.90;;;;;;4999722;28;20065;-63
2024/03/31 00:34:36;;;;;;;1.60;1.50;;;6.90;99.90;;;;;;5004849;28;20484;-63
2024/03/31 00:37:01;;;;;;;1.55;1.40;;;6.90;99.90;;;;;;5000502;28;20127;-63
2024/03/31 00:39:27;;;;;;;1.75;1.60;;;7.00;99.90;;;;;;5004831;28;20034;-63
2024/03/31 00:41:55;;;;;;;2.20;2.10;;;7.00;99.90;;;;;;5001460;28;20046;-63
2024/03/31 00:44:21;;;;;;;4.13;1.85;;;7.10;99.90;;;;;;4998256;28;20080;-63
2024/03/31 00:46:49;;;;;;;2.80;1.70;;;7.20;99.90;;;;;;5003023;28;20045;-63
2024/03/31 00:49:27;;;;;;;5.40;1.60;;;7.20;99.90;;;;;;4997645;28;20108;-63
2024/03/31 00:51:52;;;;;;;2.90;1.38;;;7.10;99.90;;;;;;4993439;28;20038;-63
2024/03/31 00:54:18;;;;;;;1.55;1.45;;;7.10;99.90;;;;;;4992272;28;20054;-63
2024/03/31 00:56:44;;;;;;;1.67;1.52;;;7.10;99.90;;;;;;5000333;28;20152;-63
2024/03/31 00:59:09;;;;;;;2.78;1.20;;;7.10;99.90;;;;;;4996416;28;20117;-63
2024/03/31 01:01:35;;;;;;;2.97;1.70;;;7.10;99.90;;;;;;4995501;28;20369;-63
2024/03/31 01:04:01;;;;;;;2.38;1.70;;;7.30;99.90;;;;;;5002454;28;20049;-63
2024/03/31 01:06:27;;;;;;;1.80;1.70;;;7.30;99.90;;;;;;4994290;28;20065;-63
2024/03/31 01:08:53;;;;;;;3.70;2.15;;;7.30;99.90;;;;;;5002784;28;20440;-63
2024/03/31 01:11:20;;;;;;;2.08;1.85;;;7.30;99.90;;;;;;4981775;28;20550;-63
2024/03/31 01:13:50;;;;;;;2.33;1.83;;;7.20;99.90;;;;;;4991324;28;20437;-63
2024/03/31 01:16:16;;;;;;;1.60;1.50;;;7.20;99.90;;;;;;4995055;28;20061;-63
2024/03/31 01:18:43;;;;;;;5.30;1.90;;;7.10;99.90;;;;;;5003504;28;20053;-63
2024/03/31 01:21:22;;;;;;;1.98;1.88;;;7.10;99.90;;;;;;4999407;28;20049;-63
2024/03/31 01:23:54;;;;;;;1.83;1.70;;;7.00;99.90;;;;;;5003622;28;20068;-63
2024/03/31 01:26:20;;;;;;;3.85;2.50;;;7.00;99.90;;;;;;4994909;28;20046;-63
2024/03/31 01:28:46;;;;;;;2.92;2.00;;;6.90;99.90;;;;;;4984266;28;20534;-63
2024/03/31 01:31:12;;;;;;;2.40;2.30;;;6.80;99.90;;;;;;4995002;28;20050;-63
2024/03/31 01:33:37;;;;;;;4.68;2.75;;;6.80;99.90;;;;;;4986047;28;20591;-63
2024/03/31 01:36:04;;;;;;;3.45;2.47;;;6.90;99.90;;;;;;4997475;28;20038;-63
2024/03/31 01:38:29;;;;;;;5.22;2.88;;;7.00;99.90;;;;;;4999494;28;20236;-63
2024/03/31 01:40:55;;;;;;;3.13;2.85;;;7.10;99.90;;;;;;4993219;28;20046;-63
2024/03/31 01:43:21;;;;;;;4.38;3.63;;;7.30;99.90;;;;;;4993284;28;20112;-63
2024/03/31 01:45:47;;;;;;;4.75;3.60;;;7.30;99.90;;;;;;5003249;28;20050;-63
2024/03/31 01:48:16;;;;;;;5.60;3.70;;;7.40;99.90;;;;;;4997636;28;20119;-63
2024/03/31 01:50:42;;;;;;;6.32;3.75;;;7.50;99.90;;;;;;4993738;28;20038;-63
2024/03/31 01:53:08;;;;;;;6.13;3.90;;;7.60;99.90;;;;;;5003629;28;20369;-63
2024/03/31 01:55:33;;;;;;;4.50;3.10;;;7.70;99.90;;;;;;4990059;28;20163;-63
2024/03/31 01:57:59;;;;;;;4.15;2.75;;;7.80;99.90;;;;;;4997363;28;20121;-64
2024/03/31 02:00:25;;;;;;;3.70;2.67;;;7.80;99.90;;;;;;4997245;28;20082;-63
2024/03/31 02:02:51;;;;;;;9.18;3.15;;;7.80;99.90;;;;;;5004020;28;20399;-64
2024/03/31 02:05:16;;;;;;;5.57;3.72;;;7.80;99.90;;;;;;4999186;28;20096;-63
2024/03/31 02:07:43;;;;;;;6.25;4.10;;;7.90;99.90;;;;;;4995965;28;20034;-63
2024/03/31 02:10:10;;;;;;;8.48;4.85;;;7.90;99.90;;;;;;4988891;28;20093;-63
2024/03/31 02:12:38;;;;;;;5.78;4.35;;;7.90;99.90;;;;;;5002472;28;20072;-63
2024/03/31 02:15:05;;;;;;;3.80;3.40;;;7.80;99.90;;;;;;4994942;28;20069;-63
2024/03/31 02:17:31;;;;;;;5.47;3.72;;;7.80;99.90;;;;;;4998692;28;20512;-63
2024/03/31 02:19:57;;;;;;;11.50;4.10;;;7.80;99.90;;;;;;4992375;28;20133;-63
2024/03/31 02:22:23;;;;;;;6.35;3.45;;;7.70;99.90;;;;;;4993342;28;20050;-63
2024/03/31 02:24:48;;;;;;;5.50;3.63;;;7.70;99.90;;;;;;5000798;28;20407;-63
2024/03/31 02:27:14;;;;;;;5.25;3.85;;;7.60;99.90;;;;;;4992712;28;20488;-63
2024/03/31 02:29:41;;;;;;;6.70;3.50;;;7.50;99.90;;;;;;4990266;28;20050;-63
2024/03/31 02:32:07;;;;;;;6.80;4.10;;;7.50;99.90;;;;;;5002713;28;20042;-63
2024/03/31 02:34:33;;;;;;;3.65;3.35;;;7.40;99.90;;;;;;4990719;28;20096;-62
2024/03/31 02:36:59;;;;;;;7.55;3.45;;;7.30;99.90;;;;;;4997882;28;20066;-63
2024/03/31 02:39:25;;;;;;;4.32;3.80;;;7.20;99.90;;;;;;4999969;28;20052;-63
2024/03/31 02:41:50;;;;;;;5.22;3.65;;;7.20;99.90;;;;;;5001329;28;20038;-63
2024/03/31 02:44:16;;;;;;;7.80;3.63;;;7.10;99.90;;;;;;5002173;28;20034;-63
2024/03/31 02:46:42;;;;;;;7.15;4.07;;;7.00;99.90;;;;;;5002378;28;20100;-63
2024/03/31 02:49:08;;;;;;;9.80;3.60;;;6.90;99.90;;;;;;5003087;28;20080;-63
2024/03/31 02:51:35;;;;;;;6.50;3.72;;;6.80;99.90;;;;;;4991523;28;20053;-63
2024/03/31 02:54:01;;;;;;;6.05;3.65;;;6.80;99.90;;;;;;4992628;28;20048;-63
2024/03/31 02:56:27;;;;;;;6.22;3.92;;;6.80;99.90;;;;;;4992853;28;20404;-63
2024/03/31 02:58:53;;;;;;;5.97;3.92;;;6.90;99.90;;;;;;5001585;28;20082;-63
2024/03/31 03:01:19;;;;;;;6.30;4.10;;;6.90;99.90;;;;;;4997406;28;20049;-63
2024/03/31 03:03:45;;;;;;;6.60;3.65;;;6.80;99.90;;;;;;5002826;28;20407;-63
2024/03/31 03:06:11;;;;;;;6.45;4.13;;;6.80;99.90;;;;;;5001431;28;20037;-63
2024/03/31 03:08:39;;;;;;;8.55;5.20;;;6.80;99.90;;;;;;4999612;28;20100;-63
2024/03/31 03:11:05;;;;;;;4.28;3.90;;;6.90;99.90;;;;;;4986161;28;20452;-63
2024/03/31 03:13:30;;;;;;;5.88;4.28;;;6.90;99.90;;;;;;4999132;28;20049;-63
2024/03/31 03:15:56;;;;;;;7.47;4.25;;;6.90;99.90;;;;;;5001779;28;20084;-63
2024/03/31 03:18:22;;;;;;;8.00;4.47;;;6.80;99.90;;;;;;4982793;28;20229;-63
2024/03/31 03:20:48;;;;;;;7.45;4.93;;;7.10;99.90;;;;;;5001754;28;20050;-63
2024/03/31 03:23:14;;;;;;;5.50;5.00;;;7.10;99.90;;;;;;4975181;28;20045;-63
2024/03/31 03:25:39;;;;;;;9.43;5.13;;;7.20;99.90;;;;;;5002447;28;20133;-63
2024/03/31 03:28:05;;;;;;;9.43;5.68;;;7.20;99.90;;;;;;4996812;28;20085;-63
2024/03/31 03:30:31;;;;;;;9.18;4.95;;;7.40;99.90;;;;;;5001622;28;20049;-63
2024/03/31 03:32:57;;;;;;;9.60;5.35;;;7.40;99.90;;;;;;4991108;28;20034;-63
2024/03/31 03:35:23;;;;;;;8.77;5.07;;;7.40;99.90;;;;;;4984766;28;20104;-63
2024/03/31 03:37:49;;;;;;;8.30;4.50;;;7.40;99.90;;;;;;4998384;28;20423;-63
2024/03/31 03:40:15;;;;;;;6.50;4.78;;;7.50;99.90;;;;;;5001077;28;20045;-63
2024/03/31 03:42:40;;;;;;;7.03;4.03;;;7.60;99.90;;;;;;4993075;28;20565;-63
2024/03/31 03:45:09;;;;;;;8.05;4.40;;;7.70;99.90;;;;;;4985079;28;20485;-63
2024/03/31 03:47:35;;;;;;;4.10;3.80;;;7.70;99.90;;;;;;4975639;28;20300;-63
2024/03/31 03:50:01;;;;;;;4.40;3.72;;;7.80;99.90;;;;;;5001626;28;20029;-63
2024/03/31 03:52:28;;;;;;;7.47;4.18;;;7.80;99.90;;;;;;4976312;28;20088;-64
2024/03/31 03:54:53;;;;;;;8.32;5.22;;;7.80;99.90;;;;;;4996614;28;20108;-63
2024/03/31 03:57:19;;;;;;;8.98;6.38;;;7.80;99.90;;;;;;5000649;28;20868;-63
2024/03/31 03:59:45;;;;;;;12.90;8.13;;;7.90;99.90;;;;;;4994103;28;20481;-63
2024/03/31 04:02:10;;;;;;;19.40;9.65;;;8.00;99.90;;;;;;5001686;28;20559;-64
2024/03/31 04:04:36;;;;;;;15.65;8.90;;;8.00;99.90;;;;;;4995256;28;20066;-63
2024/03/31 04:07:02;;;;;;;18.35;8.85;;;8.00;99.90;;;;;;4992783;28;20050;-63
2024/03/31 04:09:28;;;;;;;23.77;9.30;;;8.00;99.90;;;;;;4994502;28;20124;-63
2024/03/31 04:11:54;;;;;;;20.20;9.07;;;8.00;99.90;;;;;;4972061;28;20086;-63
2024/03/31 04:14:20;;;;;;;11.65;7.68;;;7.90;99.90;;;;;;4994161;28;20038;-63
2024/03/31 04:16:45;;;;;;;16.35;9.05;;;8.00;99.90;;;;;;5002982;28;20038;-63
2024/03/31 04:19:11;;;;;;;16.73;7.90;;;7.90;99.90;;;;;;4996833;28;20073;-63
2024/03/31 04:21:38;;;;;;;13.77;8.43;;;8.00;99.90;;;;;;5002209;28;20099;-64
2024/03/31 04:24:04;;;;;;;18.70;8.38;;;7.80;99.90;;;;;;5000243;28;20042;-63
2024/03/31 04:26:30;;;;;;;12.85;8.25;;;7.80;99.90;;;;;;4998834;28;20049;-64
2024/03/31 04:28:56;;;;;;;13.93;8.15;;;7.90;99.90;;;;;;4991723;28;20042;-63
2024/03/31 04:31:21;;;;;;;17.10;8.55;;;7.90;99.90;;;;;;4992969;28;20104;-63
2024/03/31 04:33:47;;;;;;;18.45;9.60;;;7.80;99.90;;;;;;4996426;28;20038;-63
2024/03/31 04:36:14;;;;;;;24.92;10.35;;;7.80;99.90;;;;;;4999435;28;20046;-63
2024/03/31 04:38:40;;;;;;;18.98;11.32;;;7.80;99.90;;;;;;4985221;28;20038;-63
2024/03/31 04:41:06;;;;;;;22.85;12.13;;;7.80;99.90;;;;;;5001328;28;20096;-63
2024/03/31 04:43:32;;;;;;;24.42;11.27;;;7.80;99.90;;;;;;5000643;28;20041;-63
2024/03/31 04:46:06;;;;;;;18.52;9.07;;;7.80;99.90;;;;;;4996507;28;20492;-63
2024/03/31 04:48:36;;;;;;;17.05;8.35;;;7.80;99.90;;;;;;4994577;28;20050;-63
2024/03/31 04:51:03;;;;;;;13.50;7.68;;;7.80;99.90;;;;;;4998680;28;20050;-63
2024/03/31 04:53:29;;;;;;;11.15;6.57;;;7.80;99.90;;;;;;4998425;28;20044;-63
2024/03/31 04:55:54;;;;;;;9.52;6.25;;;7.80;99.90;;;;;;5005865;28;20467;-63
2024/03/31 04:58:20;;;;;;;9.25;5.82;;;7.80;99.90;;;;;;4986882;28;20045;-64
2024/03/31 05:00:46;;;;;;;8.73;6.13;;;7.70;99.90;;;;;;4995732;28;20049;-63
2024/03/31 05:03:12;;;;;;;9.00;6.15;;;7.70;99.90;;;;;;5001603;28;20078;-63
2024/03/31 05:05:38;;;;;;;9.23;6.10;;;7.70;99.90;;;;;;4996575;28;20046;-63
2024/03/31 05:08:04;;;;;;;10.27;6.45;;;7.60;99.90;;;;;;4995729;28;20045;-63
2024/03/31 05:10:30;;;;;;;9.82;6.22;;;7.60;99.90;;;;;;4988704;28;20423;-63
2024/03/31 05:12:59;;;;;;;12.25;6.85;;;7.70;99.90;;;;;;5003168;28;20041;-63
2024/03/31 05:15:25;;;;;;;13.30;7.55;;;7.60;99.90;;;;;;4995849;28;20132;-63
2024/03/31 05:17:51;;;;;;;10.38;5.85;;;7.60;99.90;;;;;;5002989;28;20574;-63
2024/03/31 05:20:17;;;;;;;8.90;6.63;;;7.60;99.90;;;;;;5003206;28;20455;-63
2024/03/31 05:22:42;;;;;;;10.45;5.90;;;7.60;99.90;;;;;;4991130;28;20563;-63
2024/03/31 05:25:08;;;;;;;9.00;4.85;;;7.60;99.90;;;;;;5000835;28;20047;-63
2024/03/31 05:27:34;;;;;;;9.35;4.68;;;7.60;99.90;;;;;;4997413;28;20126;-63
2024/03/31 05:29:59;;;;;;;3.40;3.10;;;7.60;99.90;;;;;;4999774;28;20478;-63
2024/03/31 05:32:25;;;;;;;4.60;2.67;;;7.60;99.90;;;;;;4994578;28;20042;-63
2024/03/31 05:34:51;;;;;;;2.55;2.33;;;7.60;99.90;;;;;;4995300;28;20045;-63
2024/03/31 05:37:16;;;;;;;2.65;1.88;;;7.50;99.90;;;;;;4999779;28;20058;-63
2024/03/31 05:39:42;;;;;;;2.10;1.80;;;7.60;99.90;;;;;;4997308;28;20048;-63
2024/03/31 05:42:08;;;;;;;2.80;1.85;;;7.50;99.90;;;;;;4999177;28;20041;-63
2024/03/31 05:44:34;;;;;;;2.42;2.22;;;7.50;99.90;;;;;;4979317;28;20532;-63
2024/03/31 05:46:59;;;;;;;2.58;2.38;;;7.50;99.90;;;;;;4998578;28;20143;-63
2024/03/31 05:49:25;;;;;;;2.65;2.00;;;7.60;99.90;;;;;;4999243;28;20042;-63
2024/03/31 05:51:51;;;;;;;2.90;2.28;;;7.60;99.90;;;;;;4995258;28;20343;-63
2024/03/31 05:54:17;;;;;;;2.90;2.30;;;7.60;99.90;;;;;;4996077;28;20058;-63
2024/03/31 05:56:42;;;;;;;2.78;2.10;;;7.50;99.90;;;;;;5000631;28;20133;-63
2024/03/31 05:59:08;;;;;;;2.55;2.20;;;7.60;99.90;;;;;;5001737;28;20332;-63
2024/03/31 06:01:34;;;;;;;2.75;2.53;;;7.60;99.90;;;;;;4997352;28;20050;-63
2024/03/31 06:04:00;;;;;;;2.22;2.13;;;7.60;99.90;;;;;;4976091;28;20559;-64
2024/03/31 06:06:26;;;;;;;3.25;2.70;;;7.60;99.90;;;;;;4993257;28;20058;-63
2024/03/31 06:08:51;;;;;;;2.72;2.53;;;7.70;99.90;;;;;;4990283;28;20080;-63
2024/03/31 06:11:18;;;;;;;3.92;2.75;;;7.70;99.90;;;;;;4988902;28;20053;-63
2024/03/31 06:13:44;;;;;;;3.10;2.90;;;7.70;99.90;;;;;;5002088;28;20060;-63
2024/03/31 06:16:10;;;;;;;3.25;2.92;;;7.70;99.90;;;;;;4993284;28;20045;-63
2024/03/31 06:18:36;;;;;;;3.85;3.05;;;7.70;99.90;;;;;;4990570;28;20057;-63
2024/03/31 06:21:08;;;;;;;3.40;3.17;;;7.70;99.90;;;;;;5002250;28;20045;-63
2024/03/31 06:23:35;;;;;;;3.30;3.05;;;7.70;99.90;;;;;;4991899;28;20520;-63
2024/03/31 06:26:01;;;;;;;2.97;2.70;;;7.70;99.90;;;;;;5002532;28;20083;-63
2024/03/31 06:28:28;;;;;;;2.45;2.35;;;7.70;99.90;;;;;;4997836;28;20054;-63
2024/03/31 06:30:54;;;;;;;2.20;1.70;;;7.70;99.90;;;;;;4999370;28;20041;-63
2024/03/31 06:33:19;;;;;;;2.25;1.75;;;7.70;99.90;;;;;;4977997;28;20111;-63
2024/03/31 06:35:45;;;;;;;2.42;1.58;;;7.80;99.90;;;;;;4995572;28;20045;-63
2024/03/31 06:38:11;;;;;;;2.95;1.75;;;7.80;99.90;;;;;;4996329;28;20042;-63
2024/03/31 06:40:37;;;;;;;2.15;1.85;;;7.70;99.90;;;;;;4994923;28;20054;-63
2024/03/31 06:43:04;;;;;;;1.70;1.60;;;7.80;99.90;;;;;;4993044;28;20065;-63
2024/03/31 06:45:30;;;;;;;2.00;1.90;;;7.80;99.90;;;;;;4997468;28;20090;-63
2024/03/31 06:47:56;;;;;;;5.90;2.50;;;7.80;99.90;;;;;;4991401;28;20085;-63
2024/03/31 06:50:22;;;;;;;2.63;1.90;;;7.90;99.90;;;;;;4998261;28;20446;-63
2024/03/31 06:52:47;;;;;;;2.05;1.95;;;7.90;99.90;;;;;;4990566;28;20049;-63
2024/03/31 06:55:13;;;;;;;2.60;2.35;;;8.00;99.90;;;;;;4995534;28;20126;-63
2024/03/31 06:57:40;;;;;;;4.20;2.17;;;8.00;99.90;;;;;;4998530;28;20096;-63
2024/03/31 07:00:06;;;;;;;2.13;2.03;;;8.00;99.90;;;;;;4991594;28;20125;-63
2024/03/31 07:02:32;;;;;;;4.55;2.50;;;8.10;99.90;;;;;;4997263;28;20434;-63
2024/03/31 07:04:58;;;;;;;2.80;2.22;;;8.00;99.90;;;;;;4992590;28;20050;-63
2024/03/31 07:07:24;;;;;;;4.05;2.70;;;8.10;99.90;;;;;;4995568;28;20041;-63
2024/03/31 07:09:49;;;;;;;4.55;2.78;;;8.10;99.90;;;;;;4994249;28;20042;-63
2024/03/31 07:12:15;;;;;;;2.80;2.60;;;8.10;99.90;;;;;;5001780;28;20141;-63
2024/03/31 07:14:41;;;;;;;2.83;2.65;;;8.10;99.90;;;;;;4993413;28;20050;-63
2024/03/31 07:17:07;;;;;;;2.97;2.70;;;8.20;99.90;;;;;;4999567;28;20060;-63
2024/03/31 07:19:32;;;;;;;5.70;3.40;;;8.20;99.90;;;;;;4990038;28;20153;-63
2024/03/31 07:21:58;;;;;;;4.03;3.10;;;8.20;99.90;;;;;;4994000;28;20046;-63
2024/03/31 07:24:24;;;;;;;2.75;2.55;;;8.30;99.90;;;;;;4995312;28;20061;-63
2024/03/31 07:26:49;;;;;;;3.17;2.88;;;8.30;99.90;;;;;;5001499;28;20089;-63
2024/03/31 07:29:15;;;;;;;4.20;3.03;;;8.30;99.90;;;;;;4992803;28;20416;-63
2024/03/31 07:31:41;;;;;;;4.00;3.70;;;8.40;99.90;;;;;;4998856;28;20101;-63
2024/03/31 07:34:07;;;;;;;4.07;3.78;;;8.50;99.90;;;;;;5000007;28;20080;-63
2024/03/31 07:36:32;;;;;;;5.30;4.13;;;8.50;99.90;;;;;;4991155;28;20069;-63
2024/03/31 07:38:58;;;;;;;6.13;4.45;;;8.50;99.90;;;;;;4995802;28;20038;-63
2024/03/31 07:41:24;;;;;;;6.25;3.80;;;8.60;99.90;;;;;;4991706;28;20046;-63
2024/03/31 07:43:49;;;;;;;6.53;4.10;;;8.60;99.90;;;;;;5000237;28;20046;-63
2024/03/31 07:46:15;;;;;;;8.93;4.18;;;8.70;99.90;;;;;;4998312;28;20098;-63
2024/03/31 07:48:41;;;;;;;5.30;4.38;;;8.70;99.90;;;;;;4990954;28;20042;-63
2024/03/31 07:51:06;;;;;;;6.85;4.03;;;8.80;99.90;;;;;;4986813;28;20060;-63
2024/03/31 07:53:32;;;;;;;4.68;3.80;;;8.80;99.90;;;;;;4986257;28;20085;-63
2024/03/31 07:56:02;;;;;;;5.90;4.60;;;8.80;99.90;;;;;;4987395;28;20049;-64
2024/03/31 07:58:27;;;;;;;5.27;3.57;;;8.80;99.90;;;;;;4984211;28;20096;-63
2024/03/31 08:00:55;;;;;;;4.30;3.90;;;8.80;99.90;;;;;;4988020;28;20153;-63
2024/03/31 08:03:21;;;;;;;6.97;4.05;;;8.70;99.90;;;;;;5000438;28;20081;-63
2024/03/31 08:05:47;;;;;;;5.80;3.85;;;8.80;99.90;;;;;;4999011;28;20140;-63
2024/03/31 08:08:13;;;;;;;4.40;3.85;;;8.80;99.90;;;;;;5004290;28;20050;-63
2024/03/31 08:10:42;;;;;;;3.42;3.13;;;8.80;99.90;;;;;;4999533;28;20053;-63
2024/03/31 08:13:08;;;;;;;3.50;3.10;;;8.80;99.90;;;;;;5006276;28;20033;-63
2024/03/31 08:15:35;;;;;;;3.03;2.72;;;8.80;99.90;;;;;;4997747;28;20057;-63
2024/03/31 08:18:01;;;;;;;4.35;2.85;;;8.80;99.90;;;;;;5000149;28;20052;-63
2024/03/31 08:20:27;;;;;;;3.65;3.08;;;8.80;99.90;;;;;;4998573;28;20046;-63
2024/03/31 08:22:53;;;;;;;3.88;3.45;;;8.80;99.90;;;;;;5000904;28;20045;-63
2024/03/31 08:25:19;;;;;;;6.10;3.92;;;8.80;99.90;;;;;;4990588;28;20093;-63
2024/03/31 08:27:44;;;;;;;5.03;3.85;;;8.80;99.90;;;;;;4990451;28;20118;-63
2024/03/31 08:30:10;;;;;;;6.93;3.97;;;8.70;99.90;;;;;;5004887;28;20069;-63
2024/03/31 08:32:36;;;;;;;4.82;3.55;;;8.70;99.90;;;;;;5002898;28;20037;-63
2024/03/31 08:35:03;;;;;;;3.78;3.47;;;8.70;99.90;;;;;;4994031;28;20103;-63
2024/03/31 08:37:29;;;;;;;4.07;3.13;;;8.70;99.90;;;;;;4995350;28;20073;-63
2024/03/31 08:39:55;;;;;;;7.00;4.72;;;8.80;99.90;;;;;;4995389;28;20045;-63
2024/03/31 08:42:30;;;;;;;5.50;4.47;;;8.80;99.90;;;;;;4996059;28;20145;-63
2024/03/31 08:44:57;;;;;;;4.70;4.30;;;8.80;99.90;;;;;;4997854;28;20173;-63
2024/03/31 08:47:32;;;;;;;5.60;5.03;;;8.90;99.90;;;;;;4992193;28;20050;-63
2024/03/31 08:49:58;;;;;;;6.32;4.70;;;8.90;99.90;;;;;;4999863;28;20042;-63
2024/03/31 08:52:25;;;;;;;7.95;4.43;;;8.90;99.90;;;;;;5003817;28;20061;-63
2024/03/31 08:54:53;;;;;;;7.32;5.20;;;8.90;99.90;;;;;;4994818;28;20053;-63
2024/03/31 08:57:19;;;;;;;5.10;4.28;;;9.00;99.90;;;;;;4991422;28;20092;-63
2024/03/31 08:59:45;;;;;;;4.88;4.30;;;9.00;99.90;;;;;;4984868;28;20436;-63
2024/03/31 09:02:15;;;;;;;5.25;3.67;;;9.20;99.90;;;;;;5001105;28;20127;-64
2024/03/31 09:04:42;;;;;;;3.60;3.25;;;9.30;99.90;;;;;;4992908;28;20070;-63
2024/03/31 09:07:07;;;;;;;3.25;3.05;;;9.50;99.90;;;;;;4994950;28;20042;-63
2024/03/31 09:09:34;;;;;;;4.07;3.30;;;9.60;99.90;;;;;;4990239;28;20049;-63
2024/03/31 09:12:00;;;;;;;3.60;2.88;;;9.80;99.90;;;;;;5001005;28;20563;-63
2024/03/31 09:14:26;;;;;;;4.50;3.25;;;9.90;99.90;;;;;;4995545;28;20468;-61
2024/03/31 09:16:52;;;;;;;3.60;3.30;;;10.00;99.90;;;;;;4993896;28;20054;-61
2024/03/31 09:19:18;;;;;;;3.85;3.42;;;10.30;99.90;;;;;;4990368;28;20057;-61
2024/03/31 09:21:45;;;;;;;3.72;3.40;;;10.50;99.90;;;;;;5001623;28;20048;-62
2024/03/31 09:24:14;;;;;;;5.22;3.42;;;10.60;99.90;;;;;;4998789;28;20042;-61
2024/03/31 09:26:40;;;;;;;3.40;3.15;;;10.60;99.90;;;;;;4998316;28;20591;-61
2024/03/31 09:29:08;;;;;;;3.30;3.05;;;10.60;99.90;;;;;;4994337;28;20034;-61
2024/03/31 09:31:33;;;;;;;3.17;2.75;;;10.70;99.90;;;;;;4997994;28;20050;-62
2024/03/31 09:34:00;;;;;;;3.20;2.88;;;10.50;99.90;;;;;;5001205;28;20533;-61
2024/03/31 09:36:26;;;;;;;3.45;3.17;;;10.40;99.90;;;;;;5000495;28;20089;-61
2024/03/31 09:38:52;;;;;;;3.05;2.78;;;10.40;99.90;;;;;;4990397;28;20045;-61
2024/03/31 09:41:19;;;;;;;4.85;3.55;;;10.30;99.90;;;;;;4993644;28;20634;-61
2024/03/31 09:43:45;;;;;;;9.05;3.65;;;10.30;99.90;;;;;;4992822;28;20049;-62
2024/03/31 09:46:15;;;;;;;5.78;3.40;;;10.60;99.90;;;;;;4984624;28;20050;-61
2024/03/31 09:48:47;;;;;;;5.57;3.80;;;10.80;99.90;;;;;;5002806;28;20046;-61
2024/03/31 09:51:22;;;;;;;4.45;4.05;;;10.90;99.90;;;;;;4994832;28;20126;-61
2024/03/31 09:54:01;;;;;;;5.50;4.05;;;11.00;99.90;;;;;;4991982;28;20058;-61
2024/03/31 09:56:49;;;;;;;4.10;3.80;;;11.00;99.90;;;;;;4993645;28;20400;-61
2024/03/31 09:59:15;;;;;;;3.80;3.50;;;11.00;1.00;;;;;;4995696;28;20046;-62
2024/03/31 10:01:45;;;;;;;3.85;3.42;;;11.00;8.00;;;;;;4995643;28;20117;-61
2024/03/31 10:04:33;;;;;;;4.53;3.67;;;11.00;1.00;;;;;;4987409;28;20047;-62
2024/03/31 10:06:59;;;;;;;5.35;4.05;;;11.00;1.00;;;;;;4994348;28;20046;-61
2024/03/31 10:09:26;;;;;;;4.68;4.28;;;11.10;36.80;;;;;;4988326;28;20042;-61
2024/03/31 10:11:53;;;;;;;4.20;3.88;;;11.20;1.00;;;;;;4994984;28;20041;-61
2024/03/31 10:14:21;;;;;;;5.47;3.75;;;11.20;1.00;;;;;;4993389;28;20038;-62
2024/03/31 10:16:48;;;;;;;6.65;3.75;;;11.20;1.00;;;;;;4986096;28;20057;-62
2024/03/31 10:19:16;;;;;;;4.82;4.35;;;11.30;1.00;;;;;;5000738;28;20054;-62
2024/03/31 10:21:47;;;;;;;7.22;4.65;;;11.40;1.00;;;;;;4994025;28;20074;-62
2024/03/31 10:24:15;;;;;;;5.07;3.80;;;11.50;1.00;;;;;;4984186;28;20097;-61
2024/03/31 10:26:41;;;;;;;4.82;4.28;;;11.60;1.00;;;;;;4996765;28;20488;-62
2024/03/31 10:29:09;;;;;;;4.32;3.92;;;11.60;1.00;;;;;;4994106;28;20104;-61
2024/03/31 10:31:35;;;;;;;4.47;4.03;;;11.70;1.00;;;;;;4999095;28;20041;-62
2024/03/31 10:34:01;;;;;;;4.38;4.00;;;11.60;1.00;;;;;;5002361;28;20045;-62
2024/03/31 10:36:30;;;;;;;4.10;3.72;;;11.60;99.90;;;;;;4999800;28;20041;-62
2024/03/31 10:38:56;;;;;;;5.30;3.90;;;11.50;1.00;;;;;;4994368;28;20042;-62
2024/03/31 10:41:22;;;;;;;7.07;3.95;;;11.50;99.90;;;;;;4991196;28;20112;-61
2024/03/31 10:43:50;;;;;;;4.45;3.88;;;11.40;99.90;;;;;;4992049;28;20478;-62
2024/03/31 10:46:18;;;;;;;5.28;3.42;;;11.40;1.00;;;;;;4993319;28;20085;-62
2024/03/31 10:48:56;;;;;;;5.88;3.75;;;11.30;1.00;;;;;;4998792;28;20514;-61
2024/03/31 10:51:23;;;;;;;4.80;3.50;;;11.30;1.00;;;;;;4988749;28;20046;-62
2024/03/31 10:53:50;;;;;;;3.65;3.35;;;11.40;1.00;;;;;;4995917;28;20088;-61
2024/03/31 10:56:29;;;;;;;8.45;3.50;;;11.30;1.00;;;;;;4998775;28;20050;-62
2024/03/31 10:59:07;;;;;;;5.25;3.38;;;11.40;1.00;;;;;;4989395;28;20045;-61
2024/03/31 11:01:37;;;;;;;5.50;4.28;;;11.70;32.90;;;;;;4989093;28;20068;-62
2024/03/31 11:04:20;;;;;;;7.28;3.72;;;12.00;1.00;;;;;;4987806;28;20397;-62
2024/03/31 11:06:47;;;;;;;5.57;3.50;;;12.40;1.00;;;;;;4993573;28;20061;-62
2024/03/31 11:09:15;;;;;;;3.88;3.58;;;12.80;1.00;;;;;;4992514;28;20594;-62
2024/03/31 11:11:43;;;;;;;7.00;3.75;;;12.90;99.90;;;;;;4992220;28;20500;-62
2024/03/31 11:14:09;;;;;;;3.90;3.50;;;12.90;99.90;;;;;;4993792;28;20053;-62
2024/03/31 11:16:36;;;;;;;5.85;3.58;;;12.90;99.90;;;;;;4990195;28;20042;-62
2024/03/31 11:19:04;;;;;;;3.85;3.55;;;12.80;99.90;;;;;;4991696;28;20500;-62
2024/03/31 11:21:33;;;;;;;3.75;3.40;;;12.60;99.90;;;;;;4989289;28;20050;-61
2024/03/31 11:24:03;;;;;;;5.25;3.22;;;12.60;99.90;;;;;;5000888;28;20062;-62
2024/03/31 11:26:29;;;;;;;3.75;3.45;;;12.60;99.90;;;;;;4988157;28;20050;-62
2024/03/31 11:28:56;;;;;;;4.72;4.18;;;12.70;99.90;;;;;;4994518;28;20307;-61
2024/03/31 11:31:22;;;;;;;8.32;4.25;;;12.80;99.90;;;;;;4997764;28;20038;-62
2024/03/31 11:33:48;;;;;;;4.20;3.90;;;12.90;99.90;;;;;;4995763;28;20057;-62
2024/03/31 11:36:17;;;;;;;5.70;4.35;;;13.00;99.90;;;;;;5001988;28;20373;-61
2024/03/31 11:38:43;;;;;;;4.43;4.03;;;12.90;99.90;;;;;;5000189;28;20061;-62
2024/03/31 11:41:09;;;;;;;4.00;3.70;;;12.90;99.90;;;;;;5006053;28;20030;-61
2024/03/31 11:43:36;;;;;;;4.30;3.90;;;12.80;99.90;;;;;;5002077;28;20030;-62
2024/03/31 11:46:02;;;;;;;4.30;4.00;;;12.80;99.90;;;;;;4985010;28;20069;-62
2024/03/31 11:48:29;;;;;;;4.53;4.13;;;12.90;99.90;;;;;;5003302;28;20485;-62
2024/03/31 11:50:55;;;;;;;4.65;4.20;;;13.00;99.90;;;;;;5001860;28;20516;-62
2024/03/31 11:53:21;;;;;;;6.85;5.05;;;13.20;99.90;;;;;;5012358;28;20041;-61
2024/03/31 11:55:48;;;;;;;7.85;5.38;;;13.30;99.90;;;;;;5004216;28;20411;-61
2024/03/31 11:58:14;;;;;;;6.60;4.47;;;13.40;99.90;;;;;;5000651;28;20420;-61
2024/03/31 12:00:50;;;;;;;5.57;4.53;;;13.40;99.90;;;;;;4989124;28;20053;-62
2024/03/31 12:03:15;;;;;;;5.40;4.88;;;13.40;99.90;;;;;;4993200;28;20153;-62
2024/03/31 12:05:49;;;;;;;6.50;4.60;;;13.40;99.90;;;;;;4992825;28;20540;-61
2024/03/31 12:08:16;;;;;;;6.82;5.20;;;13.40;99.90;;;;;;5002863;28;20504;-62
2024/03/31 12:10:47;;;;;;;10.85;5.15;;;13.30;99.90;;;;;;5005360;28;20176;-61
2024/03/31 12:13:14;;;;;;;5.95;4.82;;;13.30;99.90;;;;;;4998105;28;20523;-62
2024/03/31 12:15:41;;;;;;;6.82;5.43;;;13.40;99.90;;;;;;4989813;28;20042;-61
2024/03/31 12:18:09;;;;;;;8.43;5.00;;;13.40;99.90;;;;;;5000268;28;20081;-62
2024/03/31 12:20:36;;;;;;;6.05;4.85;;;13.50;99.90;;;;;;4992477;28;20527;-61
2024/03/31 12:23:06;;;;;;;7.82;4.75;;;13.50;99.90;;;;;;4987125;28;20046;-62
2024/03/31 12:25:33;;;;;;;6.63;4.63;;;13.50;99.90;;;;;;5000903;28;20053;-62
2024/03/31 12:28:01;;;;;;;4.28;3.88;;;13.50;99.90;;;;;;4993414;28;20482;-61
2024/03/31 12:30:37;;;;;;;8.70;4.22;;;13.60;99.90;;;;;;4983283;28;20058;-61
2024/03/31 12:33:03;;;;;;;5.30;3.80;;;13.70;99.90;;;;;;4987017;28;20420;-61
2024/03/31 12:35:29;;;;;;;5.30;4.00;;;13.80;99.90;;;;;;4994656;28;20049;-62
2024/03/31 12:37:55;;;;;;;3.55;3.25;;;13.90;99.90;;;;;;4998312;28;20049;-61
2024/03/31 12:40:21;;;;;;;6.93;3.22;;;13.90;99.90;;;;;;4996314;28;20091;-62
2024/03/31 12:42:48;;;;;;;4.57;2.95;;;13.90;99.90;;;;;;4996084;28;20045;-61
2024/03/31 12:45:21;;;;;;;6.45;3.60;;;14.20;99.90;;;;;;4999503;28;20456;-62
2024/03/31 12:47:51;;;;;;;3.72;3.40;;;14.50;99.90;;;;;;4996679;28;20082;-61
2024/03/31 12:50:17;;;;;;;4.40;3.45;;;14.50;99.90;;;;;;4996377;28;20061;-62